SBOSBO BHX / EGBB
Speedbird OnlineSpeedbird Online BHX / EGBB

Birmingham International Airport
05:14 4.1°C

Location Birmingham, United Kingdom
Latitude: 52.453899383499994
Longitude: -1.74802994728
Web Airport Website | Wikipedia
Altitude 100 Meter / 327 Feet
Distance 166 KM / 103 Miles
from London.
Time Zone UTC 0 hours (Europe/London)
Codes IATA: BHX
ICAO: EGBB
Runways
RunwayLength (m)Surface
153052Asphalt
333052Asphalt
Radio
TypeDescriptionFrequency
APPAPP118.05
ATISATIS136.02
GNDGND121.8
TWRTWR118.3
Live ATC
METAR EGBB 290450Z 22007KT 180V250 9999 BKN006 BKN034 OVC041 04/03 Q1027
TAF TAF EGBB 282254Z 2900/2924 VRB03KT 9999 BKN030 TEMPO 2900/2911 SCT008 BKN012 PROB30 TEMPO 2900/2910 7000 -RADZ BKN006 BECMG 2909/2912 27010KT TEMPO 2918/2924 BKN012 PROB30 TEMPO 2921/2924 7000 -RADZ
Weather As Of 29 Jan 2023 05:14
Description Overcast clouds
Wind 13 km/h from South-West (220°)
Cloud Cover 100%
Precipitation Rain: none, Snow: none
Sunrise 07:53
Sunset 16:46
Lounges Aspire Lounge, Main Terminal
Rotations During the last 90 days there were
1 flights from AGP
1 flights from BCN



Support Speedbird Online

© 2017-2023 Speedbird Online